sensor_id;sensor_type;location;lat;lon;timestamp;P1;durP1;ratioP1;P2;durP2;ratioP2
7017;SDS011;3549;42.162;24.726;2023-02-11T00:01:06;48.73;;;16.80;;
7017;SDS011;3549;42.162;24.726;2023-02-11T00:03:40;41.75;;;14.63;;
7017;SDS011;3549;42.162;24.726;2023-02-11T00:06:06;50.00;;;17.50;;
7017;SDS011;3549;42.162;24.726;2023-02-11T00:08:35;49.40;;;18.17;;
7017;SDS011;3549;42.162;24.726;2023-02-11T00:11:01;53.25;;;17.58;;
7017;SDS011;3549;42.162;24.726;2023-02-11T00:13:26;55.73;;;18.30;;
7017;SDS011;3549;42.162;24.726;2023-02-11T00:15:52;66.67;;;22.73;;
7017;SDS011;3549;42.162;24.726;2023-02-11T00:18:18;81.20;;;26.52;;
7017;SDS011;3549;42.162;24.726;2023-02-11T00:20:44;59.70;;;21.90;;
7017;SDS011;3549;42.162;24.726;2023-02-11T00:23:09;51.83;;;17.13;;
7017;SDS011;3549;42.162;24.726;2023-02-11T00:25:40;45.60;;;15.13;;
7017;SDS011;3549;42.162;24.726;2023-02-11T00:28:07;43.20;;;14.55;;
7017;SDS011;3549;42.162;24.726;2023-02-11T00:30:33;54.17;;;20.33;;
7017;SDS011;3549;42.162;24.726;2023-02-11T00:32:59;51.17;;;20.30;;
7017;SDS011;3549;42.162;24.726;2023-02-11T00:35:24;61.00;;;21.63;;
7017;SDS011;3549;42.162;24.726;2023-02-11T00:37:51;60.03;;;22.63;;
7017;SDS011;3549;42.162;24.726;2023-02-11T00:40:18;63.25;;;22.27;;
7017;SDS011;3549;42.162;24.726;2023-02-11T00:42:43;63.27;;;22.43;;
7017;SDS011;3549;42.162;24.726;2023-02-11T00:45:09;66.03;;;21.93;;
7017;SDS011;3549;42.162;24.726;2023-02-11T00:47:34;63.20;;;22.40;;
7017;SDS011;3549;42.162;24.726;2023-02-11T00:50:00;67.00;;;21.83;;
7017;SDS011;3549;42.162;24.726;2023-02-11T00:52:28;63.97;;;23.05;;
7017;SDS011;3549;42.162;24.726;2023-02-11T00:54:54;69.63;;;23.60;;
7017;SDS011;3549;42.162;24.726;2023-02-11T00:57:19;68.57;;;23.57;;
7017;SDS011;3549;42.162;24.726;2023-02-11T00:59:44;61.90;;;23.90;;
7017;SDS011;3549;42.162;24.726;2023-02-11T01:02:10;61.47;;;22.50;;
7017;SDS011;3549;42.162;24.726;2023-02-11T01:04:35;67.50;;;22.63;;
7017;SDS011;3549;42.162;24.726;2023-02-11T01:07:01;58.70;;;21.87;;
7017;SDS011;3549;42.162;24.726;2023-02-11T01:09:26;67.57;;;22.70;;
7017;SDS011;3549;42.162;24.726;2023-02-11T01:11:51;63.03;;;22.70;;
7017;SDS011;3549;42.162;24.726;2023-02-11T01:14:17;65.03;;;22.33;;
7017;SDS011;3549;42.162;24.726;2023-02-11T01:16:42;75.90;;;26.10;;
7017;SDS011;3549;42.162;24.726;2023-02-11T01:19:07;100.67;;;34.77;;
7017;SDS011;3549;42.162;24.726;2023-02-11T01:21:33;84.00;;;29.93;;
7017;SDS011;3549;42.162;24.726;2023-02-11T01:23:58;86.10;;;26.77;;
7017;SDS011;3549;42.162;24.726;2023-02-11T01:26:24;85.67;;;28.67;;
7017;SDS011;3549;42.162;24.726;2023-02-11T01:28:49;82.77;;;27.07;;
7017;SDS011;3549;42.162;24.726;2023-02-11T01:31:15;74.33;;;27.20;;
7017;SDS011;3549;42.162;24.726;2023-02-11T01:33:40;81.23;;;26.63;;
7017;SDS011;3549;42.162;24.726;2023-02-11T01:36:06;74.93;;;26.80;;
7017;SDS011;3549;42.162;24.726;2023-02-11T01:38:32;71.72;;;26.23;;
7017;SDS011;3549;42.162;24.726;2023-02-11T01:40:59;87.53;;;28.17;;
7017;SDS011;3549;42.162;24.726;2023-02-11T01:43:40;82.03;;;26.75;;
7017;SDS011;3549;42.162;24.726;2023-02-11T01:46:19;60.70;;;22.27;;
7017;SDS011;3549;42.162;24.726;2023-02-11T01:49:10;60.97;;;22.55;;
7017;SDS011;3549;42.162;24.726;2023-02-11T01:54:09;92.88;;;33.78;;
7017;SDS011;3549;42.162;24.726;2023-02-11T01:56:56;71.70;;;26.63;;
7017;SDS011;3549;42.162;24.726;2023-02-11T01:59:48;67.03;;;26.27;;
7017;SDS011;3549;42.162;24.726;2023-02-11T02:02:17;78.93;;;29.20;;
7017;SDS011;3549;42.162;24.726;2023-02-11T02:04:51;73.70;;;27.38;;
7017;SDS011;3549;42.162;24.726;2023-02-11T02:07:30;69.30;;;26.27;;
7017;SDS011;3549;42.162;24.726;2023-02-11T02:10:04;66.80;;;26.38;;
7017;SDS011;3549;42.162;24.726;2023-02-11T02:12:35;64.18;;;23.08;;
7017;SDS011;3549;42.162;24.726;2023-02-11T02:17:51;84.22;;;28.25;;
7017;SDS011;3549;42.162;24.726;2023-02-11T02:20:51;64.05;;;22.90;;
7017;SDS011;3549;42.162;24.726;2023-02-11T02:38:15;61.00;;;19.55;;
7017;SDS011;3549;42.162;24.726;2023-02-11T02:43:15;56.22;;;19.33;;
7017;SDS011;3549;42.162;24.726;2023-02-11T02:45:42;54.88;;;20.33;;
7017;SDS011;3549;42.162;24.726;2023-02-11T02:48:21;53.03;;;19.73;;
7017;SDS011;3549;42.162;24.726;2023-02-11T02:56:08;62.45;;;20.70;;
7017;SDS011;3549;42.162;24.726;2023-02-11T02:58:59;52.58;;;19.98;;
7017;SDS011;3549;42.162;24.726;2023-02-11T03:04:05;56.37;;;19.43;;
7017;SDS011;3549;42.162;24.726;2023-02-11T03:09:13;54.20;;;19.33;;
7017;SDS011;3549;42.162;24.726;2023-02-11T03:11:46;59.88;;;21.30;;
7017;SDS011;3549;42.162;24.726;2023-02-11T03:14:13;63.53;;;21.37;;
7017;SDS011;3549;42.162;24.726;2023-02-11T03:16:42;55.22;;;21.08;;
7017;SDS011;3549;42.162;24.726;2023-02-11T03:21:47;57.90;;;21.58;;
7017;SDS011;3549;42.162;24.726;2023-02-11T03:24:18;49.35;;;18.38;;
7017;SDS011;3549;42.162;24.726;2023-02-11T03:26:52;42.25;;;16.17;;
7017;SDS011;3549;42.162;24.726;2023-02-11T03:32:09;55.78;;;18.55;;
7017;SDS011;3549;42.162;24.726;2023-02-11T03:37:45;75.53;;;27.65;;
7017;SDS011;3549;42.162;24.726;2023-02-11T03:40:23;66.15;;;22.17;;
7017;SDS011;3549;42.162;24.726;2023-02-11T03:42:58;139.40;;;42.13;;
7017;SDS011;3549;42.162;24.726;2023-02-11T03:45:27;121.35;;;41.72;;
7017;SDS011;3549;42.162;24.726;2023-02-11T03:47:56;119.53;;;41.22;;
7017;SDS011;3549;42.162;24.726;2023-02-11T03:50:25;105.10;;;36.88;;
7017;SDS011;3549;42.162;24.726;2023-02-11T03:52:52;105.75;;;37.08;;
7017;SDS011;3549;42.162;24.726;2023-02-11T03:55:19;103.65;;;35.30;;
7017;SDS011;3549;42.162;24.726;2023-02-11T03:57:47;82.40;;;29.98;;
7017;SDS011;3549;42.162;24.726;2023-02-11T04:00:13;83.50;;;29.13;;
7017;SDS011;3549;42.162;24.726;2023-02-11T04:02:39;91.95;;;30.67;;
7017;SDS011;3549;42.162;24.726;2023-02-11T04:05:06;72.22;;;26.67;;
7017;SDS011;3549;42.162;24.726;2023-02-11T04:07:33;83.57;;;29.60;;
7017;SDS011;3549;42.162;24.726;2023-02-11T04:09:58;66.20;;;25.33;;
7017;SDS011;3549;42.162;24.726;2023-02-11T04:12:24;86.47;;;32.03;;
7017;SDS011;3549;42.162;24.726;2023-02-11T04:14:49;81.33;;;30.73;;
7017;SDS011;3549;42.162;24.726;2023-02-11T04:17:15;77.27;;;28.93;;
7017;SDS011;3549;42.162;24.726;2023-02-11T04:19:41;77.97;;;26.27;;
7017;SDS011;3549;42.162;24.726;2023-02-11T04:22:06;97.63;;;34.70;;
7017;SDS011;3549;42.162;24.726;2023-02-11T04:24:32;70.50;;;25.73;;
7017;SDS011;3549;42.162;24.726;2023-02-11T04:26:57;67.10;;;25.77;;
7017;SDS011;3549;42.162;24.726;2023-02-11T04:29:23;70.37;;;23.50;;
7017;SDS011;3549;42.162;24.726;2023-02-11T04:31:48;62.67;;;23.17;;
7017;SDS011;3549;42.162;24.726;2023-02-11T04:34:14;63.90;;;21.47;;
7017;SDS011;3549;42.162;24.726;2023-02-11T04:36:40;63.10;;;22.13;;
7017;SDS011;3549;42.162;24.726;2023-02-11T04:39:05;55.60;;;19.60;;
7017;SDS011;3549;42.162;24.726;2023-02-11T04:41:31;66.22;;;24.35;;
7017;SDS011;3549;42.162;24.726;2023-02-11T04:43:56;61.10;;;20.27;;
7017;SDS011;3549;42.162;24.726;2023-02-11T04:46:22;55.47;;;20.70;;
7017;SDS011;3549;42.162;24.726;2023-02-11T04:48:47;63.30;;;22.53;;
7017;SDS011;3549;42.162;24.726;2023-02-11T04:51:13;66.70;;;21.30;;
7017;SDS011;3549;42.162;24.726;2023-02-11T04:53:38;63.27;;;21.53;;
7017;SDS011;3549;42.162;24.726;2023-02-11T04:56:04;61.40;;;20.43;;
7017;SDS011;3549;42.162;24.726;2023-02-11T04:58:29;65.33;;;20.53;;
7017;SDS011;3549;42.162;24.726;2023-02-11T05:00:55;68.70;;;22.10;;
7017;SDS011;3549;42.162;24.726;2023-02-11T05:03:20;117.67;;;37.03;;
7017;SDS011;3549;42.162;24.726;2023-02-11T05:05:45;277.27;;;66.20;;
7017;SDS011;3549;42.162;24.726;2023-02-11T05:08:11;259.60;;;66.27;;
7017;SDS011;3549;42.162;24.726;2023-02-11T05:10:37;255.80;;;70.10;;
7017;SDS011;3549;42.162;24.726;2023-02-11T05:13:03;153.93;;;47.40;;
7017;SDS011;3549;42.162;24.726;2023-02-11T05:15:28;185.67;;;55.03;;
7017;SDS011;3549;42.162;24.726;2023-02-11T05:17:54;186.93;;;54.83;;
7017;SDS011;3549;42.162;24.726;2023-02-11T05:20:20;154.07;;;49.90;;
7017;SDS011;3549;42.162;24.726;2023-02-11T05:22:45;152.60;;;47.83;;
7017;SDS011;3549;42.162;24.726;2023-02-11T05:25:11;120.83;;;39.13;;
7017;SDS011;3549;42.162;24.726;2023-02-11T05:27:36;168.23;;;59.63;;
7017;SDS011;3549;42.162;24.726;2023-02-11T05:30:02;78.03;;;28.67;;
7017;SDS011;3549;42.162;24.726;2023-02-11T05:32:28;66.07;;;24.92;;
7017;SDS011;3549;42.162;24.726;2023-02-11T05:34:54;57.30;;;19.80;;
7017;SDS011;3549;42.162;24.726;2023-02-11T05:37:19;60.33;;;19.67;;
7017;SDS011;3549;42.162;24.726;2023-02-11T05:39:44;50.73;;;18.33;;
7017;SDS011;3549;42.162;24.726;2023-02-11T05:42:10;58.83;;;20.53;;
7017;SDS011;3549;42.162;24.726;2023-02-11T05:44:35;56.80;;;18.10;;
7017;SDS011;3549;42.162;24.726;2023-02-11T05:47:00;46.03;;;15.53;;
7017;SDS011;3549;42.162;24.726;2023-02-11T05:49:26;45.43;;;15.03;;
7017;SDS011;3549;42.162;24.726;2023-02-11T05:51:51;46.13;;;15.27;;
7017;SDS011;3549;42.162;24.726;2023-02-11T05:54:17;53.10;;;17.37;;
7017;SDS011;3549;42.162;24.726;2023-02-11T05:56:42;63.47;;;20.53;;
7017;SDS011;3549;42.162;24.726;2023-02-11T05:59:07;53.63;;;16.47;;
7017;SDS011;3549;42.162;24.726;2023-02-11T06:01:33;105.03;;;34.07;;
7017;SDS011;3549;42.162;24.726;2023-02-11T06:03:58;43.43;;;17.47;;
7017;SDS011;3549;42.162;24.726;2023-02-11T06:06:24;43.47;;;14.40;;
7017;SDS011;3549;42.162;24.726;2023-02-11T06:08:50;47.10;;;15.63;;
7017;SDS011;3549;42.162;24.726;2023-02-11T06:11:15;53.37;;;16.00;;
7017;SDS011;3549;42.162;24.726;2023-02-11T06:13:42;42.72;;;14.52;;
7017;SDS011;3549;42.162;24.726;2023-02-11T06:16:07;65.53;;;19.00;;
7017;SDS011;3549;42.162;24.726;2023-02-11T06:18:33;170.27;;;44.40;;
7017;SDS011;3549;42.162;24.726;2023-02-11T06:20:59;100.07;;;33.03;;
7017;SDS011;3549;42.162;24.726;2023-02-11T06:23:24;84.47;;;29.77;;
7017;SDS011;3549;42.162;24.726;2023-02-11T06:25:50;95.40;;;34.67;;
7017;SDS011;3549;42.162;24.726;2023-02-11T06:28:16;92.93;;;33.15;;
7017;SDS011;3549;42.162;24.726;2023-02-11T06:30:42;117.47;;;40.20;;
7017;SDS011;3549;42.162;24.726;2023-02-11T06:33:08;107.97;;;37.27;;
7017;SDS011;3549;42.162;24.726;2023-02-11T06:35:33;107.83;;;33.33;;
7017;SDS011;3549;42.162;24.726;2023-02-11T06:37:59;125.33;;;44.17;;
7017;SDS011;3549;42.162;24.726;2023-02-11T06:40:25;92.45;;;30.17;;
7017;SDS011;3549;42.162;24.726;2023-02-11T06:42:51;107.37;;;38.73;;
7017;SDS011;3549;42.162;24.726;2023-02-11T06:45:16;170.00;;;57.83;;
7017;SDS011;3549;42.162;24.726;2023-02-11T06:47:42;212.27;;;65.97;;
7017;SDS011;3549;42.162;24.726;2023-02-11T06:50:08;172.33;;;63.00;;
7017;SDS011;3549;42.162;24.726;2023-02-11T06:52:36;142.73;;;48.33;;
7017;SDS011;3549;42.162;24.726;2023-02-11T06:55:02;78.40;;;32.47;;
7017;SDS011;3549;42.162;24.726;2023-02-11T06:57:28;53.73;;;21.60;;
7017;SDS011;3549;42.162;24.726;2023-02-11T06:59:54;51.65;;;21.98;;
7017;SDS011;3549;42.162;24.726;2023-02-11T07:02:20;47.57;;;19.27;;
7017;SDS011;3549;42.162;24.726;2023-02-11T07:04:45;48.10;;;18.83;;
7017;SDS011;3549;42.162;24.726;2023-02-11T07:07:11;41.63;;;17.03;;
7017;SDS011;3549;42.162;24.726;2023-02-11T07:09:36;32.27;;;13.17;;
7017;SDS011;3549;42.162;24.726;2023-02-11T07:12:01;34.47;;;12.53;;
7017;SDS011;3549;42.162;24.726;2023-02-11T07:14:27;37.20;;;13.07;;
7017;SDS011;3549;42.162;24.726;2023-02-11T07:16:52;49.93;;;17.03;;
7017;SDS011;3549;42.162;24.726;2023-02-11T07:19:18;42.57;;;15.83;;
7017;SDS011;3549;42.162;24.726;2023-02-11T07:21:43;51.17;;;20.30;;
7017;SDS011;3549;42.162;24.726;2023-02-11T07:24:09;46.90;;;20.77;;
7017;SDS011;3549;42.162;24.726;2023-02-11T07:26:34;48.90;;;19.93;;
7017;SDS011;3549;42.162;24.726;2023-02-11T07:29:00;59.03;;;26.45;;
7017;SDS011;3549;42.162;24.726;2023-02-11T07:31:26;66.03;;;23.07;;
7017;SDS011;3549;42.162;24.726;2023-02-11T07:33:54;40.25;;;14.27;;
7017;SDS011;3549;42.162;24.726;2023-02-11T07:36:21;48.47;;;18.20;;
7017;SDS011;3549;42.162;24.726;2023-02-11T07:38:47;76.82;;;28.42;;
7017;SDS011;3549;42.162;24.726;2023-02-11T07:41:13;67.03;;;26.37;;
7017;SDS011;3549;42.162;24.726;2023-02-11T07:43:40;76.15;;;28.42;;
7017;SDS011;3549;42.162;24.726;2023-02-11T07:46:10;62.38;;;24.95;;
7017;SDS011;3549;42.162;24.726;2023-02-11T07:48:43;64.78;;;27.08;;
7017;SDS011;3549;42.162;24.726;2023-02-11T07:51:13;84.27;;;33.43;;
7017;SDS011;3549;42.162;24.726;2023-02-11T07:53:43;81.10;;;30.25;;
7017;SDS011;3549;42.162;24.726;2023-02-11T07:56:09;54.53;;;24.38;;
7017;SDS011;3549;42.162;24.726;2023-02-11T07:58:35;52.22;;;22.90;;
7017;SDS011;3549;42.162;24.726;2023-02-11T08:01:05;56.80;;;21.57;;
7017;SDS011;3549;42.162;24.726;2023-02-11T08:03:32;58.47;;;25.15;;
7017;SDS011;3549;42.162;24.726;2023-02-11T08:06:01;48.67;;;21.67;;
7017;SDS011;3549;42.162;24.726;2023-02-11T08:08:31;50.55;;;21.50;;
7017;SDS011;3549;42.162;24.726;2023-02-11T08:10:56;47.83;;;20.23;;
7017;SDS011;3549;42.162;24.726;2023-02-11T08:13:22;34.33;;;14.77;;
7017;SDS011;3549;42.162;24.726;2023-02-11T08:15:47;42.30;;;17.13;;
7017;SDS011;3549;42.162;24.726;2023-02-11T08:18:13;55.77;;;22.80;;
7017;SDS011;3549;42.162;24.726;2023-02-11T08:20:38;56.30;;;25.00;;
7017;SDS011;3549;42.162;24.726;2023-02-11T08:23:05;51.30;;;21.33;;
7017;SDS011;3549;42.162;24.726;2023-02-11T08:25:31;48.13;;;22.35;;
7017;SDS011;3549;42.162;24.726;2023-02-11T08:27:57;45.60;;;20.90;;
7017;SDS011;3549;42.162;24.726;2023-02-11T08:30:22;61.20;;;28.27;;
7017;SDS011;3549;42.162;24.726;2023-02-11T08:32:49;44.50;;;18.92;;
7017;SDS011;3549;42.162;24.726;2023-02-11T08:35:15;46.67;;;20.10;;
7017;SDS011;3549;42.162;24.726;2023-02-11T08:37:40;38.93;;;13.70;;
7017;SDS011;3549;42.162;24.726;2023-02-11T08:40:06;38.57;;;17.13;;
7017;SDS011;3549;42.162;24.726;2023-02-11T08:42:31;45.93;;;20.37;;
7017;SDS011;3549;42.162;24.726;2023-02-11T08:44:57;45.73;;;20.57;;
7017;SDS011;3549;42.162;24.726;2023-02-11T08:47:22;53.13;;;23.17;;
7017;SDS011;3549;42.162;24.726;2023-02-11T08:49:48;60.47;;;24.97;;
7017;SDS011;3549;42.162;24.726;2023-02-11T08:52:13;54.10;;;24.07;;
7017;SDS011;3549;42.162;24.726;2023-02-11T08:54:39;49.43;;;22.63;;
7017;SDS011;3549;42.162;24.726;2023-02-11T08:57:04;44.70;;;20.47;;
7017;SDS011;3549;42.162;24.726;2023-02-11T08:59:30;50.97;;;20.23;;
7017;SDS011;3549;42.162;24.726;2023-02-11T09:01:55;45.93;;;19.47;;
7017;SDS011;3549;42.162;24.726;2023-02-11T09:04:21;50.20;;;21.90;;
7017;SDS011;3549;42.162;24.726;2023-02-11T09:06:47;36.33;;;16.03;;
7017;SDS011;3549;42.162;24.726;2023-02-11T09:09:13;38.50;;;17.13;;
7017;SDS011;3549;42.162;24.726;2023-02-11T09:11:39;63.60;;;27.90;;
7017;SDS011;3549;42.162;24.726;2023-02-11T09:14:06;31.70;;;14.93;;
7017;SDS011;3549;42.162;24.726;2023-02-11T09:16:33;42.50;;;20.17;;
7017;SDS011;3549;42.162;24.726;2023-02-11T09:19:00;44.60;;;19.33;;
7017;SDS011;3549;42.162;24.726;2023-02-11T09:21:28;33.70;;;15.47;;
7017;SDS011;3549;42.162;24.726;2023-02-11T09:23:54;58.57;;;28.03;;
7017;SDS011;3549;42.162;24.726;2023-02-11T09:26:21;53.27;;;25.50;;
7017;SDS011;3549;42.162;24.726;2023-02-11T09:28:48;31.03;;;14.00;;
7017;SDS011;3549;42.162;24.726;2023-02-11T09:31:14;49.27;;;21.13;;
7017;SDS011;3549;42.162;24.726;2023-02-11T09:33:42;57.23;;;26.73;;
7017;SDS011;3549;42.162;24.726;2023-02-11T09:36:12;39.23;;;17.43;;
7017;SDS011;3549;42.162;24.726;2023-02-11T09:38:40;43.20;;;20.73;;
7017;SDS011;3549;42.162;24.726;2023-02-11T09:41:11;49.53;;;22.20;;
7017;SDS011;3549;42.162;24.726;2023-02-11T09:43:59;45.00;;;19.60;;
7017;SDS011;3549;42.162;24.726;2023-02-11T09:46:33;54.43;;;23.67;;
7017;SDS011;3549;42.162;24.726;2023-02-11T09:49:02;56.67;;;26.43;;
7017;SDS011;3549;42.162;24.726;2023-02-11T09:54:19;63.40;;;28.83;;
7017;SDS011;3549;42.162;24.726;2023-02-11T09:56:51;35.27;;;17.03;;
7017;SDS011;3549;42.162;24.726;2023-02-11T09:59:16;62.97;;;24.77;;
7017;SDS011;3549;42.162;24.726;2023-02-11T10:18:43;38.57;;;18.67;;
7017;SDS011;3549;42.162;24.726;2023-02-11T10:21:32;44.00;;;19.87;;
7017;SDS011;3549;42.162;24.726;2023-02-11T10:24:11;44.70;;;21.83;;
7017;SDS011;3549;42.162;24.726;2023-02-11T10:26:38;62.90;;;25.93;;
7017;SDS011;3549;42.162;24.726;2023-02-11T10:29:11;44.60;;;19.43;;
7017;SDS011;3549;42.162;24.726;2023-02-11T10:31:46;60.80;;;23.83;;
7017;SDS011;3549;42.162;24.726;2023-02-11T10:34:14;43.17;;;20.20;;
7017;SDS011;3549;42.162;24.726;2023-02-11T10:36:40;36.80;;;19.03;;
7017;SDS011;3549;42.162;24.726;2023-02-11T10:41:44;72.77;;;30.87;;
7017;SDS011;3549;42.162;24.726;2023-02-11T10:44:18;43.77;;;19.10;;
7017;SDS011;3549;42.162;24.726;2023-02-11T10:46:48;72.10;;;29.80;;
7017;SDS011;3549;42.162;24.726;2023-02-11T10:54:39;49.23;;;23.40;;
7017;SDS011;3549;42.162;24.726;2023-02-11T10:57:05;57.40;;;24.23;;
7017;SDS011;3549;42.162;24.726;2023-02-11T10:59:35;56.00;;;26.17;;
7017;SDS011;3549;42.162;24.726;2023-02-11T11:04:56;31.57;;;14.83;;
7017;SDS011;3549;42.162;24.726;2023-02-11T11:07:27;28.33;;;13.93;;
7017;SDS011;3549;42.162;24.726;2023-02-11T11:09:55;33.20;;;16.80;;
7017;SDS011;3549;42.162;24.726;2023-02-11T11:14:52;41.53;;;19.53;;
7017;SDS011;3549;42.162;24.726;2023-02-11T11:17:23;56.60;;;28.27;;
7017;SDS011;3549;42.162;24.726;2023-02-11T11:19:49;28.93;;;14.03;;
7017;SDS011;3549;42.162;24.726;2023-02-11T11:22:19;28.83;;;12.60;;
7017;SDS011;3549;42.162;24.726;2023-02-11T11:24:46;49.77;;;25.43;;
7017;SDS011;3549;42.162;24.726;2023-02-11T11:27:18;30.53;;;15.27;;
7017;SDS011;3549;42.162;24.726;2023-02-11T11:29:50;43.00;;;20.07;;
7017;SDS011;3549;42.162;24.726;2023-02-11T11:34:50;46.90;;;21.73;;
7017;SDS011;3549;42.162;24.726;2023-02-11T11:37:25;47.67;;;22.27;;
7017;SDS011;3549;42.162;24.726;2023-02-11T11:45:02;37.93;;;19.00;;
7017;SDS011;3549;42.162;24.726;2023-02-11T11:47:38;28.87;;;12.43;;
7017;SDS011;3549;42.162;24.726;2023-02-11T11:56:15;28.37;;;13.23;;
7017;SDS011;3549;42.162;24.726;2023-02-11T11:58:40;77.60;;;28.40;;
7017;SDS011;3549;42.162;24.726;2023-02-11T12:33:18;26.77;;;12.97;;
7017;SDS011;3549;42.162;24.726;2023-02-11T12:38:56;25.03;;;13.70;;
7017;SDS011;3549;42.162;24.726;2023-02-11T13:02:22;39.63;;;24.07;;
7017;SDS011;3549;42.162;24.726;2023-02-11T13:04:50;33.50;;;18.00;;
7017;SDS011;3549;42.162;24.726;2023-02-11T13:07:25;34.17;;;19.57;;
7017;SDS011;3549;42.162;24.726;2023-02-11T13:09:58;23.53;;;13.60;;
7017;SDS011;3549;42.162;24.726;2023-02-11T13:12:31;24.50;;;13.67;;
7017;SDS011;3549;42.162;24.726;2023-02-11T13:15:18;26.27;;;13.80;;
7017;SDS011;3549;42.162;24.726;2023-02-11T13:20:33;26.57;;;15.40;;
7017;SDS011;3549;42.162;24.726;2023-02-11T13:23:12;26.40;;;14.37;;
7017;SDS011;3549;42.162;24.726;2023-02-11T13:28:39;22.30;;;13.70;;
7017;SDS011;3549;42.162;24.726;2023-02-11T13:31:12;46.00;;;24.73;;
7017;SDS011;3549;42.162;24.726;2023-02-11T13:33:40;49.93;;;26.50;;
7017;SDS011;3549;42.162;24.726;2023-02-11T13:38:33;52.00;;;28.13;;
7017;SDS011;3549;42.162;24.726;2023-02-11T13:43:59;108.83;;;40.33;;
7017;SDS011;3549;42.162;24.726;2023-02-11T13:46:48;32.80;;;16.53;;
7017;SDS011;3549;42.162;24.726;2023-02-11T13:49:40;44.07;;;20.00;;
7017;SDS011;3549;42.162;24.726;2023-02-11T13:52:17;25.23;;;14.33;;
7017;SDS011;3549;42.162;24.726;2023-02-11T13:57:45;37.73;;;20.80;;
7017;SDS011;3549;42.162;24.726;2023-02-11T14:14:35;54.57;;;28.57;;
7017;SDS011;3549;42.162;24.726;2023-02-11T14:17:30;43.60;;;22.43;;
7017;SDS011;3549;42.162;24.726;2023-02-11T14:19:57;58.63;;;26.30;;
7017;SDS011;3549;42.162;24.726;2023-02-11T14:22:25;74.27;;;37.27;;
7017;SDS011;3549;42.162;24.726;2023-02-11T14:25:00;32.97;;;19.03;;
7017;SDS011;3549;42.162;24.726;2023-02-11T14:30:17;33.50;;;19.37;;
7017;SDS011;3549;42.162;24.726;2023-02-11T14:41:23;37.63;;;21.03;;
7017;SDS011;3549;42.162;24.726;2023-02-11T14:43:56;25.53;;;14.27;;
7017;SDS011;3549;42.162;24.726;2023-02-11T14:46:25;28.37;;;15.67;;
7017;SDS011;3549;42.162;24.726;2023-02-11T14:48:54;30.00;;;16.17;;
7017;SDS011;3549;42.162;24.726;2023-02-11T14:51:26;27.63;;;14.73;;
7017;SDS011;3549;42.162;24.726;2023-02-11T14:54:00;31.33;;;16.63;;
7017;SDS011;3549;42.162;24.726;2023-02-11T14:56:34;31.40;;;15.87;;
7017;SDS011;3549;42.162;24.726;2023-02-11T14:59:01;28.07;;;16.10;;
7017;SDS011;3549;42.162;24.726;2023-02-11T15:03:58;37.27;;;20.67;;
7017;SDS011;3549;42.162;24.726;2023-02-11T15:06:32;30.13;;;16.30;;
7017;SDS011;3549;42.162;24.726;2023-02-11T15:11:49;34.57;;;17.23;;
7017;SDS011;3549;42.162;24.726;2023-02-11T15:14:23;34.80;;;18.63;;
7017;SDS011;3549;42.162;24.726;2023-02-11T15:16:51;51.10;;;23.53;;
7017;SDS011;3549;42.162;24.726;2023-02-11T15:21:52;48.10;;;23.53;;
7017;SDS011;3549;42.162;24.726;2023-02-11T15:29:37;49.77;;;24.07;;
7017;SDS011;3549;42.162;24.726;2023-02-11T15:34:51;38.47;;;17.83;;
7017;SDS011;3549;42.162;24.726;2023-02-11T15:37:27;41.17;;;21.47;;
7017;SDS011;3549;42.162;24.726;2023-02-11T15:39:53;41.27;;;21.80;;
7017;SDS011;3549;42.162;24.726;2023-02-11T15:42:31;49.93;;;26.03;;
7017;SDS011;3549;42.162;24.726;2023-02-11T15:47:38;37.67;;;19.43;;
7017;SDS011;3549;42.162;24.726;2023-02-11T15:50:04;55.60;;;27.60;;
7017;SDS011;3549;42.162;24.726;2023-02-11T15:52:31;44.17;;;22.30;;
7017;SDS011;3549;42.162;24.726;2023-02-11T15:54:58;39.47;;;19.60;;
7017;SDS011;3549;42.162;24.726;2023-02-11T15:57:26;42.37;;;19.87;;
7017;SDS011;3549;42.162;24.726;2023-02-11T15:59:53;45.13;;;20.60;;
7017;SDS011;3549;42.162;24.726;2023-02-11T16:02:33;53.40;;;24.27;;
7017;SDS011;3549;42.162;24.726;2023-02-11T16:05:06;89.37;;;34.40;;
7017;SDS011;3549;42.162;24.726;2023-02-11T16:10:01;50.90;;;21.60;;
7017;SDS011;3549;42.162;24.726;2023-02-11T16:12:26;47.50;;;21.53;;
7017;SDS011;3549;42.162;24.726;2023-02-11T16:14:53;44.50;;;19.57;;
7017;SDS011;3549;42.162;24.726;2023-02-11T16:17:24;46.60;;;19.87;;
7017;SDS011;3549;42.162;24.726;2023-02-11T16:19:53;51.17;;;21.50;;
7017;SDS011;3549;42.162;24.726;2023-02-11T16:22:25;60.40;;;23.40;;
7017;SDS011;3549;42.162;24.726;2023-02-11T16:24:54;50.10;;;21.87;;
7017;SDS011;3549;42.162;24.726;2023-02-11T16:27:24;54.80;;;22.17;;
7017;SDS011;3549;42.162;24.726;2023-02-11T16:29:52;54.50;;;22.53;;
7017;SDS011;3549;42.162;24.726;2023-02-11T16:32:19;80.00;;;31.57;;
7017;SDS011;3549;42.162;24.726;2023-02-11T16:34:50;87.13;;;30.03;;
7017;SDS011;3549;42.162;24.726;2023-02-11T16:37:16;79.50;;;31.40;;
7017;SDS011;3549;42.162;24.726;2023-02-11T16:39:41;83.53;;;31.40;;
7017;SDS011;3549;42.162;24.726;2023-02-11T16:42:08;81.73;;;33.77;;
7017;SDS011;3549;42.162;24.726;2023-02-11T16:44:34;91.93;;;36.00;;
7017;SDS011;3549;42.162;24.726;2023-02-11T16:47:00;80.13;;;30.33;;
7017;SDS011;3549;42.162;24.726;2023-02-11T16:49:28;73.10;;;29.07;;
7017;SDS011;3549;42.162;24.726;2023-02-11T16:51:58;73.33;;;30.70;;
7017;SDS011;3549;42.162;24.726;2023-02-11T16:54:28;71.93;;;31.57;;
7017;SDS011;3549;42.162;24.726;2023-02-11T16:56:54;74.17;;;30.70;;
7017;SDS011;3549;42.162;24.726;2023-02-11T16:59:20;71.40;;;29.83;;
7017;SDS011;3549;42.162;24.726;2023-02-11T17:01:45;74.87;;;32.33;;
7017;SDS011;3549;42.162;24.726;2023-02-11T17:04:17;75.00;;;33.27;;
7017;SDS011;3549;42.162;24.726;2023-02-11T17:06:44;134.43;;;51.23;;
7017;SDS011;3549;42.162;24.726;2023-02-11T17:09:18;175.40;;;58.23;;
7017;SDS011;3549;42.162;24.726;2023-02-11T17:11:46;147.27;;;53.17;;
7017;SDS011;3549;42.162;24.726;2023-02-11T17:14:11;85.97;;;33.57;;
7017;SDS011;3549;42.162;24.726;2023-02-11T17:16:37;94.33;;;37.87;;
7017;SDS011;3549;42.162;24.726;2023-02-11T17:19:02;109.23;;;44.17;;
7017;SDS011;3549;42.162;24.726;2023-02-11T17:21:27;82.17;;;35.27;;
7017;SDS011;3549;42.162;24.726;2023-02-11T17:23:55;81.10;;;32.57;;
7017;SDS011;3549;42.162;24.726;2023-02-11T17:26:21;90.30;;;36.87;;
7017;SDS011;3549;42.162;24.726;2023-02-11T17:28:46;85.83;;;35.10;;
7017;SDS011;3549;42.162;24.726;2023-02-11T17:31:12;88.67;;;33.63;;
7017;SDS011;3549;42.162;24.726;2023-02-11T17:33:37;103.80;;;39.27;;
7017;SDS011;3549;42.162;24.726;2023-02-11T17:36:06;112.90;;;43.67;;
7017;SDS011;3549;42.162;24.726;2023-02-11T17:38:33;144.53;;;58.00;;
7017;SDS011;3549;42.162;24.726;2023-02-11T17:41:00;350.33;;;129.73;;
7017;SDS011;3549;42.162;24.726;2023-02-11T17:43:26;178.93;;;67.13;;
7017;SDS011;3549;42.162;24.726;2023-02-11T17:45:52;155.23;;;57.70;;
7017;SDS011;3549;42.162;24.726;2023-02-11T17:48:18;290.77;;;108.90;;
7017;SDS011;3549;42.162;24.726;2023-02-11T17:50:43;294.63;;;103.10;;
7017;SDS011;3549;42.162;24.726;2023-02-11T17:53:09;396.87;;;141.90;;
7017;SDS011;3549;42.162;24.726;2023-02-11T17:55:35;535.73;;;261.57;;
7017;SDS011;3549;42.162;24.726;2023-02-11T17:58:02;543.80;;;245.37;;
7017;SDS011;3549;42.162;24.726;2023-02-11T18:00:28;484.73;;;196.97;;
7017;SDS011;3549;42.162;24.726;2023-02-11T18:02:53;467.30;;;179.60;;
7017;SDS011;3549;42.162;24.726;2023-02-11T18:05:19;372.30;;;126.07;;